createdAt,value
2022-07-27T00:05:42.956Z,45.89
2022-07-27T00:08:46.112Z,46.39
2022-07-27T00:11:50.002Z,46.71
2022-07-27T00:14:52.739Z,46.54
2022-07-27T00:17:56.913Z,47.10
2022-07-27T00:21:00.756Z,47.35
2022-07-27T00:24:03.551Z,47.64
2022-07-27T00:27:08.387Z,47.24
2022-07-27T00:30:12.069Z,47.27
2022-07-27T00:33:16.864Z,47.26
2022-07-27T00:36:20.295Z,47.56
2022-07-27T00:39:23.226Z,47.56
2022-07-27T00:42:28.164Z,47.21
2022-07-27T00:45:31.168Z,47.27
2022-07-27T00:48:33.938Z,47.39
2022-07-27T00:51:36.812Z,47.39
2022-07-27T00:54:39.636Z,46.95
2022-07-27T00:57:58.238Z,47.23
2022-07-27T01:01:02.804Z,47.36
2022-07-27T01:04:05.544Z,47.38
2022-07-27T01:07:08.498Z,47.35
2022-07-27T01:10:11.284Z,47.40
2022-07-27T01:13:17.109Z,47.19
2022-07-27T01:16:21.206Z,47.83
2022-07-27T01:19:24.024Z,48.39
2022-07-27T01:22:28.034Z,48.95
2022-07-27T01:25:30.761Z,49.41
2022-07-27T01:28:33.405Z,50.00
2022-07-27T01:31:36.195Z,49.89
2022-07-27T01:34:39.112Z,50.40
2022-07-27T01:37:42.986Z,50.82
2022-07-27T01:40:52.023Z,50.94
2022-07-27T01:43:54.670Z,50.79
2022-07-27T01:46:57.284Z,51.09
2022-07-27T01:50:00.179Z,50.84
2022-07-27T01:53:04.528Z,51.01
2022-07-27T01:56:12.375Z,51.19
2022-07-27T01:59:16.698Z,51.38
2022-07-27T02:02:19.829Z,51.18
2022-07-27T02:05:22.823Z,51.58
2022-07-27T02:08:27.146Z,51.67
2022-07-27T02:11:48.280Z,51.48
2022-07-27T02:14:51.011Z,51.68
2022-07-27T02:17:54.167Z,51.94
2022-07-27T02:20:57.318Z,52.62
2022-07-27T02:24:01.466Z,52.65
2022-07-27T02:27:04.211Z,53.53
2022-07-27T02:30:08.615Z,53.52
2022-07-27T02:33:11.441Z,53.19
2022-07-27T02:36:14.452Z,53.31
2022-07-27T02:39:18.407Z,54.01
2022-07-27T02:42:21.920Z,54.02
2022-07-27T02:45:24.778Z,53.92
2022-07-27T02:48:27.626Z,53.53
2022-07-27T02:51:30.304Z,53.11
2022-07-27T02:54:34.944Z,52.70
2022-07-27T02:57:37.913Z,52.63
2022-07-27T03:00:40.666Z,52.68
2022-07-27T03:03:43.424Z,53.08
2022-07-27T03:06:46.541Z,53.56
2022-07-27T03:09:52.648Z,54.01
2022-07-27T03:12:55.515Z,54.71
2022-07-27T03:15:58.643Z,55.26
2022-07-27T03:19:01.234Z,55.57
2022-07-27T03:22:03.950Z,55.43
2022-07-27T03:25:09.777Z,55.05
2022-07-27T03:28:12.572Z,55.07
2022-07-27T03:31:15.390Z,55.28
2022-07-27T03:34:18.576Z,55.29
2022-07-27T03:37:21.532Z,55.87
2022-07-27T03:40:32.603Z,56.16
2022-07-27T03:43:35.959Z,56.58
2022-07-27T03:46:38.564Z,57.11
2022-07-27T03:49:41.320Z,56.72
2022-07-27T03:52:45.436Z,56.63
2022-07-27T03:55:49.982Z,56.82
2022-07-27T03:58:52.826Z,56.97
2022-07-27T04:01:55.686Z,57.58
2022-07-27T04:04:58.521Z,57.66
2022-07-27T04:08:01.279Z,56.99
2022-07-27T04:11:05.910Z,57.25
2022-07-27T04:14:10.583Z,56.99
2022-07-27T04:17:56.164Z,57.42
2022-07-27T04:20:38.133Z,57.36
2022-07-27T04:23:40.935Z,57.04
2022-07-27T04:26:45.008Z,56.88
2022-07-27T04:29:47.705Z,57.07
2022-07-27T04:32:59.570Z,56.20
2022-07-27T04:36:02.371Z,56.90
2022-07-27T04:39:05.882Z,56.32
2022-07-27T04:42:12.551Z,55.84
2022-07-27T04:45:16.201Z,55.80
2022-07-27T04:48:19.055Z,56.07
2022-07-27T04:51:22.441Z,56.07
2022-07-27T04:54:25.954Z,55.66
2022-07-27T04:57:33.747Z,54.92
2022-07-27T05:00:37.178Z,54.56
2022-07-27T05:03:40.709Z,55.11
2022-07-27T05:06:43.628Z,55.57
2022-07-27T05:09:46.738Z,55.56
2022-07-27T05:12:51.096Z,55.28
2022-07-27T05:15:56.053Z,54.74
2022-07-27T05:18:59.070Z,54.45
2022-07-27T05:22:02.398Z,54.10
2022-07-27T05:25:05.715Z,54.14
2022-07-27T05:28:09.553Z,54.64
2022-07-27T05:31:12.112Z,54.70
2022-07-27T05:34:14.941Z,54.26
2022-07-27T05:37:17.583Z,53.55
2022-07-27T05:40:20.557Z,53.12
2022-07-27T05:43:24.555Z,52.84
2022-07-27T05:46:31.064Z,52.95
2022-07-27T05:49:35.638Z,52.70
2022-07-27T05:52:38.375Z,52.44
2022-07-27T05:55:58.367Z,52.15
2022-07-27T05:59:07.104Z,52.24
2022-07-27T06:02:10.424Z,52.16
2022-07-27T06:05:15.954Z,52.08
2022-07-27T06:08:19.608Z,51.05
2022-07-27T06:11:22.319Z,50.79
2022-07-27T06:14:26.467Z,51.38
2022-07-27T06:17:29.247Z,50.91
2022-07-27T06:20:32.116Z,50.50
2022-07-27T06:23:34.945Z,49.62
2022-07-27T06:26:37.686Z,49.36
2022-07-27T06:29:41.736Z,49.43
2022-07-27T06:32:44.373Z,50.02
2022-07-27T06:35:46.973Z,49.20
2022-07-27T06:38:50.165Z,48.63
2022-07-27T06:41:57.974Z,48.04
2022-07-27T06:45:02.470Z,47.33
2022-07-27T06:48:06.200Z,47.61
2022-07-27T06:51:09.622Z,47.13
2022-07-27T06:54:12.500Z,46.45
2022-07-27T06:57:15.702Z,45.32
2022-07-27T07:00:19.849Z,44.47
2022-07-27T07:03:22.642Z,44.91
2022-07-27T07:06:25.433Z,44.48
2022-07-27T07:09:28.621Z,43.75
2022-07-27T07:12:32.062Z,43.61
2022-07-27T07:15:37.918Z,43.11
2022-07-27T07:18:40.748Z,42.30
2022-07-27T07:21:43.412Z,43.05
2022-07-27T07:24:46.012Z,43.76
2022-07-27T07:27:48.933Z,44.24
2022-07-27T07:30:53.019Z,42.88
2022-07-27T07:33:55.779Z,41.77
2022-07-27T07:36:58.464Z,41.65
2022-07-27T07:40:13.003Z,41.49
2022-07-27T07:43:23.896Z,41.06
2022-07-27T07:46:28.265Z,40.11
2022-07-27T07:49:37.870Z,41.18
2022-07-27T07:52:42.864Z,40.72
2022-07-27T07:55:45.620Z,41.45
2022-07-27T07:58:48.845Z,41.10
2022-07-27T08:01:52.913Z,39.91
2022-07-27T08:04:55.685Z,39.93
2022-07-27T08:07:58.423Z,40.47
2022-07-27T08:11:01.253Z,40.01
2022-07-27T08:14:04.384Z,38.87
2022-07-27T08:17:08.316Z,38.79
2022-07-27T08:20:12.249Z,38.30
2022-07-27T08:23:14.882Z,38.90
2022-07-27T08:26:17.923Z,39.29
2022-07-27T08:29:23.253Z,39.54
2022-07-27T08:32:29.204Z,39.89
2022-07-27T08:35:33.006Z,38.62
2022-07-27T08:38:35.707Z,39.63
2022-07-27T08:41:39.899Z,39.90
2022-07-27T08:44:45.657Z,39.42
2022-07-27T08:47:49.713Z,40.05
2022-07-27T08:50:52.773Z,40.67
2022-07-27T08:53:55.323Z,39.43
2022-07-27T08:57:00.411Z,40.14
2022-07-27T09:00:03.548Z,40.65
2022-07-27T09:03:07.740Z,39.66
2022-07-27T09:06:10.478Z,38.77
2022-07-27T09:09:14.858Z,38.07
2022-07-27T09:12:18.436Z,37.80
2022-07-27T09:15:21.089Z,37.20
2022-07-27T09:18:27.214Z,37.71
2022-07-27T09:21:30.041Z,36.67
2022-07-27T09:24:48.235Z,37.01
2022-07-27T09:27:55.082Z,35.67
2022-07-27T09:31:06.433Z,35.38
2022-07-27T09:34:11.393Z,35.13
2022-07-27T09:37:24.655Z,35.24
2022-07-27T09:40:27.236Z,35.27
2022-07-27T09:46:53.015Z,35.73
2022-07-27T09:49:58.270Z,36.36
2022-07-27T09:53:41.529Z,35.68
2022-07-27T09:56:36.433Z,36.14
2022-07-27T09:59:39.133Z,37.91
2022-07-27T10:02:42.914Z,37.99
2022-07-27T10:05:47.155Z,38.15
2022-07-27T10:08:51.532Z,39.61
2022-07-27T10:11:54.816Z,39.60
2022-07-27T10:14:57.539Z,38.80
2022-07-27T10:18:07.354Z,38.76
2022-07-27T10:21:12.121Z,38.62
2022-07-27T10:24:27.040Z,38.24
2022-07-27T10:27:30.853Z,36.35
2022-07-27T10:30:33.555Z,35.28
2022-07-27T10:33:42.726Z,33.76
2022-07-27T10:36:52.116Z,35.51
2022-07-27T10:40:16.996Z,36.03
2022-07-27T10:43:21.151Z,35.52
2022-07-27T10:46:24.002Z,36.56
2022-07-27T10:49:28.289Z,35.33
2022-07-27T10:52:43.373Z,34.14
2022-07-27T10:55:53.277Z,33.84
2022-07-27T10:58:56.150Z,31.31
2022-07-27T11:01:59.504Z,29.67
2022-07-27T11:05:05.537Z,30.24
2022-07-27T11:08:36.472Z,29.53
2022-07-27T11:11:34.530Z,29.55
2022-07-27T11:14:46.249Z,28.55
2022-07-27T11:17:58.389Z,28.50
2022-07-27T11:21:15.190Z,29.01
2022-07-27T11:24:19.287Z,29.85
2022-07-27T11:27:25.205Z,30.19
2022-07-27T11:30:29.415Z,29.23
2022-07-27T11:33:32.416Z,28.77
2022-07-27T11:36:43.179Z,28.92
2022-07-27T11:40:20.259Z,28.10
2022-07-27T11:43:14.509Z,26.38
2022-07-27T11:46:21.206Z,26.80
2022-07-27T11:49:28.651Z,24.36
2022-07-27T11:52:31.455Z,24.20
2022-07-27T11:55:35.437Z,24.97
2022-07-27T11:59:09.359Z,26.37
2022-07-27T12:02:14.074Z,25.81
2022-07-27T12:05:17.089Z,28.42
2022-07-27T12:08:20.063Z,29.05
2022-07-27T12:11:34.294Z,29.80
2022-07-27T12:14:39.213Z,30.29
2022-07-27T12:17:43.320Z,28.96
2022-07-27T12:20:48.586Z,27.77
2022-07-27T12:23:52.847Z,26.69
2022-07-27T12:27:08.410Z,25.70
2022-07-27T12:30:12.400Z,26.82
2022-07-27T12:33:28.302Z,25.19
2022-07-27T12:36:31.541Z,24.85
2022-07-27T12:39:34.373Z,26.33
2022-07-27T12:42:38.353Z,26.40
2022-07-27T12:45:41.227Z,25.51
2022-07-27T12:48:44.264Z,24.88
2022-07-27T12:51:46.970Z,24.89
2022-07-27T12:54:49.707Z,23.65
2022-07-27T12:57:56.479Z,22.27
2022-07-27T13:00:59.922Z,26.29
2022-07-27T13:04:02.860Z,28.21
2022-07-27T13:07:05.552Z,21.59
2022-07-27T13:10:11.216Z,15.35
2022-07-27T13:13:15.428Z,14.02
2022-07-27T13:16:18.298Z,12.70
2022-07-27T13:19:21.032Z,11.80
2022-07-27T13:22:23.929Z,10.55
2022-07-27T13:25:26.829Z,12.49
2022-07-27T13:28:30.855Z,17.01
2022-07-27T13:31:33.678Z,19.73
2022-07-27T13:34:36.459Z,21.48
2022-07-27T13:37:41.902Z,21.27
2022-07-27T13:40:45.042Z,23.39
2022-07-27T13:43:49.082Z,24.31
2022-07-27T13:46:51.855Z,15.88
2022-07-27T13:49:56.338Z,14.87
2022-07-27T13:52:59.043Z,15.92
2022-07-27T13:56:03.110Z,14.57
2022-07-27T13:59:08.030Z,14.88
2022-07-27T14:02:11.594Z,15.63
2022-07-27T14:05:15.981Z,13.00
2022-07-27T14:08:22.025Z,13.80
2022-07-27T14:11:24.773Z,17.68
2022-07-27T14:14:28.804Z,19.49
2022-07-27T14:17:31.472Z,14.09
2022-07-27T14:20:34.550Z,13.94
2022-07-27T14:23:38.120Z,16.67
2022-07-27T14:26:40.856Z,13.95
2022-07-27T14:29:44.947Z,12.24
2022-07-27T14:32:47.654Z,10.33
2022-07-27T14:35:50.312Z,11.02
2022-07-27T14:38:53.519Z,15.26
2022-07-27T14:41:56.287Z,20.55
2022-07-27T14:45:00.325Z,23.38
2022-07-27T14:48:03.193Z,18.98
2022-07-27T14:51:06.515Z,14.36
2022-07-27T14:54:09.113Z,12.67
2022-07-27T14:57:11.949Z,13.95
2022-07-27T15:00:17.683Z,18.00
2022-07-27T15:03:21.242Z,18.59
2022-07-27T15:06:24.012Z,14.50
2022-07-27T15:09:28.450Z,13.24
2022-07-27T15:12:34.890Z,8.80
2022-07-27T15:15:41.639Z,7.99
2022-07-27T15:18:45.815Z,12.00
2022-07-27T15:21:48.787Z,17.07
2022-07-27T15:24:52.564Z,15.60
2022-07-27T15:27:55.416Z,15.28
2022-07-27T15:30:59.498Z,19.00
2022-07-27T15:34:02.115Z,20.82
2022-07-27T15:37:07.361Z,15.14
2022-07-27T15:40:28.722Z,10.87
2022-07-27T15:43:31.460Z,8.83
2022-07-27T15:46:35.765Z,13.00
2022-07-27T15:49:38.709Z,13.33
2022-07-27T15:52:41.461Z,13.96
2022-07-27T15:55:44.541Z,13.79
2022-07-27T15:58:47.202Z,12.73
2022-07-27T16:01:51.364Z,12.24
2022-07-27T16:04:56.382Z,11.27
2022-07-27T16:07:59.256Z,10.32
2022-07-27T16:11:01.979Z,10.40
2022-07-27T16:14:04.840Z,13.20
2022-07-27T16:17:09.044Z,20.43
2022-07-27T16:20:13.386Z,22.64
2022-07-27T16:23:18.632Z,20.57
2022-07-27T16:26:24.471Z,17.62
2022-07-27T16:29:28.435Z,13.97
2022-07-27T16:32:32.696Z,12.56
2022-07-27T16:35:35.513Z,14.38
2022-07-27T16:38:49.790Z,15.63
2022-07-27T16:41:53.105Z,17.05
2022-07-27T16:44:56.315Z,16.61
2022-07-27T16:48:00.554Z,19.34
2022-07-27T16:51:03.325Z,20.96
2022-07-27T16:54:06.339Z,17.93
2022-07-27T16:57:10.692Z,15.90
2022-07-27T17:00:15.307Z,14.04
2022-07-27T17:03:19.274Z,13.07
2022-07-27T17:06:22.006Z,13.09
2022-07-27T17:09:24.757Z,12.56
2022-07-27T17:12:27.430Z,12.86
2022-07-27T17:15:31.480Z,14.72
2022-07-27T17:18:40.130Z,18.84
2022-07-27T17:21:43.421Z,23.90
2022-07-27T17:24:46.388Z,26.23
2022-07-27T17:27:49.267Z,27.79
2022-07-27T17:30:52.174Z,28.50
2022-07-27T17:33:57.115Z,29.38
2022-07-27T17:37:00.018Z,29.59
2022-07-27T17:40:02.822Z,29.62
2022-07-27T17:43:05.866Z,29.86
2022-07-27T17:46:10.354Z,30.09
2022-07-27T17:49:15.043Z,30.14
2022-07-27T17:52:18.005Z,31.32
2022-07-27T17:55:20.526Z,31.57
2022-07-27T17:58:28.043Z,31.50
2022-07-27T18:01:47.144Z,31.36
2022-07-27T18:04:52.445Z,32.48
2022-07-27T18:07:55.278Z,32.62
2022-07-27T18:10:57.789Z,32.53
2022-07-27T18:14:00.446Z,32.75
2022-07-27T18:17:03.344Z,32.70
2022-07-27T18:20:10.326Z,32.63
2022-07-27T18:23:13.056Z,33.32
2022-07-27T18:26:15.646Z,33.13
2022-07-27T18:29:18.429Z,33.58
2022-07-27T18:32:20.990Z,33.88
2022-07-27T18:35:25.425Z,34.41
2022-07-27T18:38:28.284Z,34.72
2022-07-27T18:41:30.811Z,34.74
2022-07-27T18:44:38.798Z,34.85
2022-07-27T18:47:41.770Z,35.30
2022-07-27T18:50:53.843Z,35.42
2022-07-27T18:53:56.564Z,35.59
2022-07-27T18:56:59.880Z,35.54
2022-07-27T19:00:02.872Z,35.25
2022-07-27T19:03:06.061Z,35.41
2022-07-27T19:06:17.970Z,35.49
2022-07-27T19:09:21.671Z,35.55
2022-07-27T19:12:24.270Z,35.69
2022-07-27T19:15:27.062Z,35.43
2022-07-27T19:18:29.954Z,35.46
2022-07-27T19:21:34.043Z,35.81
2022-07-27T19:24:36.910Z,35.54
2022-07-27T19:27:40.131Z,35.52
2022-07-27T19:30:43.249Z,35.35
2022-07-27T19:33:46.721Z,35.98
2022-07-27T19:36:50.782Z,36.12
2022-07-27T19:39:57.298Z,36.23
2022-07-27T19:43:06.009Z,36.83
2022-07-27T19:46:09.150Z,36.82
2022-07-27T19:49:12.302Z,37.00
2022-07-27T19:52:17.324Z,37.31
2022-07-27T19:55:20.138Z,37.51
2022-07-27T19:58:23.406Z,37.90
2022-07-27T20:01:26.416Z,38.29
2022-07-27T20:04:29.069Z,38.68
2022-07-27T20:07:33.222Z,39.08
2022-07-27T20:10:36.011Z,39.53
2022-07-27T20:13:38.725Z,39.64
2022-07-27T20:16:41.827Z,40.08
2022-07-27T20:19:45.229Z,40.00
2022-07-27T20:22:49.277Z,40.39
2022-07-27T20:25:52.215Z,40.76
2022-07-27T20:28:55.032Z,40.80
2022-07-27T20:31:57.979Z,40.91
2022-07-27T20:35:01.290Z,40.71
2022-07-27T20:38:05.214Z,41.30
2022-07-27T20:41:07.932Z,41.57
2022-07-27T20:44:10.699Z,41.89
2022-07-27T20:47:14.673Z,41.68
2022-07-27T20:50:17.619Z,42.00
2022-07-27T20:53:21.742Z,41.51
2022-07-27T20:56:24.612Z,41.06
2022-07-27T20:59:28.381Z,40.87
2022-07-27T21:02:31.075Z,41.12
2022-07-27T21:05:34.853Z,40.71
2022-07-27T21:08:44.293Z,40.64
2022-07-27T21:11:50.660Z,40.71
2022-07-27T21:14:53.279Z,40.97
2022-07-27T21:17:56.129Z,40.83
2022-07-27T21:20:59.072Z,40.39
2022-07-27T21:24:18.084Z,40.40
2022-07-27T21:27:21.550Z,40.48
2022-07-27T21:30:24.404Z,40.50
2022-07-27T21:33:27.089Z,40.88
2022-07-27T21:36:29.751Z,41.49
2022-07-27T21:39:33.781Z,41.82
2022-07-27T21:42:36.472Z,41.97
2022-07-27T21:45:39.220Z,42.38
2022-07-27T21:48:50.705Z,42.30
2022-07-27T21:51:53.521Z,42.56
2022-07-27T21:54:59.908Z,43.16
2022-07-27T21:58:02.649Z,43.08
2022-07-27T22:01:05.635Z,43.86
2022-07-27T22:04:10.452Z,43.25
2022-07-27T22:07:19.040Z,43.38
2022-07-27T22:10:23.828Z,43.31
2022-07-27T22:13:26.581Z,43.70
2022-07-27T22:16:29.353Z,43.17
2022-07-27T22:19:32.053Z,44.08
2022-07-27T22:22:34.998Z,44.13
2022-07-27T22:25:39.190Z,44.38
2022-07-27T22:28:42.143Z,44.74
2022-07-27T22:31:45.006Z,44.85
2022-07-27T22:34:47.899Z,44.78
2022-07-27T22:37:50.756Z,44.79
2022-07-27T22:40:54.833Z,45.34
2022-07-27T22:43:57.590Z,45.76
2022-07-27T22:47:00.432Z,45.81
2022-07-27T22:50:04.038Z,46.46
2022-07-27T22:53:06.709Z,46.29
2022-07-27T22:56:10.821Z,46.33
2022-07-27T22:59:13.416Z,46.68
2022-07-27T23:02:16.158Z,46.68
2022-07-27T23:05:18.941Z,46.80
2022-07-27T23:08:21.853Z,46.75
2022-07-27T23:11:25.848Z,46.32
2022-07-27T23:14:30.041Z,45.88
2022-07-27T23:17:32.702Z,46.06
2022-07-27T23:20:35.394Z,45.75
2022-07-27T23:23:39.866Z,45.81
2022-07-27T23:26:54.213Z,45.54
2022-07-27T23:29:56.918Z,45.06
2022-07-27T23:32:59.562Z,44.53
2022-07-27T23:36:06.138Z,45.14
2022-07-27T23:39:08.790Z,44.50
2022-07-27T23:42:13.071Z,43.99
2022-07-27T23:45:15.811Z,44.11
2022-07-27T23:48:18.898Z,45.13
2022-07-27T23:51:21.623Z,45.13
2022-07-27T23:54:24.542Z,45.75
2022-07-27T23:57:28.790Z,45.99
